Bad Gleichenberg, Austria
Current Conditions -  °F | °C
As of 11:20 AM on Thursday 18 Dec 2014 (Local Time) from LOWG Reporting Station
Moderate Fog Moderate Fog  
Wind Chill: 34°   Ceiling: 200
Heat Index: 34°   Visibility: 0.21mi
Dew Point: 34°   Wind: 2mph
Humidity: 100%   Direction: NA
Pressure: 30.06"   Gusts: NA
Location:  46.88°N, 15.91°E
Report Text: LOWG 180920Z VRB02KT 0350 R17/0275N R35/0325N FG VV002 01/01 Q1018 R17/2///95 BECMG 0800 SCT002 BKN005
Loading
Personal Weather Stations






























Interactive Weather Map New forecast layout! Learn more

10-Day Weather Forecast

Advertisements
Track Severe Weather on mobile